This is the latest recevied weather packets stored in our database for station/object JH1LWU-13. If no packets are shown the sender has not sent any weather packets the latest 10 day(s).
| Time | Temp. | Humidity | Pressure | Rain* | Wind** | Luminosity | Snow |
|---|---|---|---|---|---|---|---|
| 1777764769 | 18.89° C | 55% | 1008 hPa | 0 mm | - | - | - |
| 1777762968 | 18.33° C | 55% | 1008 hPa | 0 mm | - | - | - |
| 1777761167 | 17.78° C | 58% | 1008 hPa | 0 mm | - | - | - |
| 1777759366 | 17.78° C | 59% | 1008 hPa | 0 mm | - | - | - |
| 1777757565 | 17.22° C | 59% | 1010 hPa | 0 mm | - | - | - |
| 1777755764 | 16.67° C | 59% | 1010 hPa | 0 mm | - | - | - |
| 1777753963 | 15.56° C | 61% | 1008 hPa | 0 mm | - | - | - |
| 1777752162 | 15.56° C | 59% | 1008 hPa | 0 mm | - | - | - |
| 1777750361 | 15.56° C | 55% | 1007 hPa | 0 mm | - | - | - |
| 1777748560 | 16.11° C | 52% | 1008 hPa | 0 mm | - | - | - |
| 1777746759 | 16.11° C | 51% | 1008 hPa | 0 mm | - | - | - |
| 1777744958 | 16.11° C | 47% | 1009 hPa | 0 mm | - | - | - |
| 1777743157 | 16.67° C | 46% | 1007 hPa | 0 mm | - | - | - |
| 1777741356 | 16.67° C | 46% | 1007 hPa | 0 mm | - | - | - |
| 1777739555 | 16.11° C | 44% | 1007 hPa | 0 mm | - | - | - |
| 1777737754 | 16.11° C | 43% | 1007 hPa | 0 mm | - | - | - |
| 1777735953 | 17.22° C | 39% | 1009 hPa | 0 mm | - | - | - |
| 1777734152 | 17.78° C | 37% | 1007 hPa | 0 mm | - | - | - |
| 1777732351 | 18.33° C | 37% | 1008 hPa | 0 mm | - | - | - |
| 1777730550 | 18.33° C | 36% | 1008 hPa | 0 mm | - | - | - |
| 1777728749 | 18.89° C | 34% | 1008 hPa | 0 mm | - | - | - |
| 1777726948 | 19.44° C | 37% | 1008 hPa | 0 mm | - | - | - |
| 1777725147 | 20° C | 34% | 1008 hPa | 0 mm | - | - | - |
| 1777723346 | 20.56° C | 31% | 1007 hPa | 0 mm | - | - | - |
| 1777721545 | 21.67° C | 28% | 1006 hPa | 0 mm | - | - | - |
* Rain latest hour (hover to see other rain measurements)
** Current wind speed in m/s (hover to see current wind gust speed)